Wetterdaten: Woche 17.07.17 - 23.07.17 (KW29)
Datum Zeit Temp. A. Feuchte A. Luftdruck Regen Wind Richtung Taupunkt Windchill Windben
17.07.2017 00:00 13,2 C 88 % 1022,1 hPa 0,0 l/m 0,0 km/h (0 Bft) O-NO 11,2 C 13,2 C 0,0 km/h (0 Bft)
17.07.2017 01:00 12,4 C 90 % 1022,0 hPa 0,0 l/m 0,0 km/h (0 Bft) O-NO 10,8 C 12,4 C 0,1 km/h (0 Bft)
17.07.2017 02:00 11,6 C 92 % 1021,7 hPa 0,0 l/m 0,0 km/h (0 Bft) O-NO 10,3 C 11,6 C 0,0 km/h (0 Bft)
17.07.2017 03:00 11,0 C 93 % 1021,3 hPa 0,0 l/m 0,0 km/h (0 Bft) O-NO 9,9 C 11,0 C 0,0 km/h (0 Bft)
17.07.2017 04:00 10,6 C 94 % 1020,9 hPa 0,0 l/m 0,0 km/h (0 Bft) O-NO 9,6 C 10,6 C 0,0 km/h (0 Bft)
17.07.2017 05:00 10,1 C 94 % 1020,8 hPa 0,0 l/m 0,0 km/h (0 Bft) O-NO 9,3 C 10,1 C 0,1 km/h (0 Bft)
17.07.2017 06:00 9,9 C 95 % 1020,7 hPa 0,0 l/m 0,0 km/h (0 Bft) O-NO 9,2 C 9,9 C 0,1 km/h (0 Bft)
17.07.2017 07:00 11,7 C 94 % 1020,8 hPa 0,0 l/m 0,1 km/h (0 Bft) O-NO 10,7 C 11,7 C 1,2 km/h (1 Bft)
17.07.2017 08:00 17,6 C 77 % 1020,7 hPa 0,0 l/m 0,5 km/h (0 Bft) O-NO 13,5 C 17,6 C 2,1 km/h (1 Bft)
17.07.2017 09:00 21,7 C 62 % 1020,5 hPa 0,0 l/m 1,5 km/h (1 Bft) NW 14,0 C 21,7 C 4,3 km/h (1 Bft)
17.07.2017 10:00 23,6 C 54 % 1020,3 hPa 0,0 l/m 2,4 km/h (1 Bft) NW 13,8 C 23,6 C 5,6 km/h (2 Bft)
17.07.2017 11:00 24,9 C 51 % 1019,9 hPa 0,0 l/m 3,5 km/h (1 Bft) N-NO 14,1 C 24,8 C 6,8 km/h (2 Bft)
17.07.2017 12:00 25,6 C 50 % 1019,6 hPa 0,0 l/m 3,0 km/h (1 Bft) W-NW 14,2 C 25,6 C 6,7 km/h (2 Bft)
17.07.2017 13:00 26,0 C 48 % 1019,3 hPa 0,0 l/m 2,5 km/h (1 Bft) O-NO 14,0 C 26,0 C 6,1 km/h (2 Bft)
17.07.2017 14:00 26,7 C 46 % 1019,0 hPa 0,0 l/m 2,4 km/h (1 Bft) S 14,1 C 26,7 C 6,7 km/h (2 Bft)
17.07.2017 15:00 26,6 C 46 % 1018,6 hPa 0,0 l/m 1,9 km/h (1 Bft) S-SW 14,0 C 26,6 C 5,5 km/h (2 Bft)
17.07.2017 16:00 27,4 C 44 % 1018,3 hPa 0,0 l/m 1,8 km/h (1 Bft) O-NO 14,2 C 27,4 C 5,5 km/h (2 Bft)
17.07.2017 17:00 26,9 C 46 % 1018,1 hPa 0,0 l/m 2,8 km/h (1 Bft) W 14,3 C 26,9 C 8,7 km/h (2 Bft)
17.07.2017 18:00 26,7 C 46 % 1017,6 hPa 0,0 l/m 3,2 km/h (1 Bft) W-SW 14,1 C 26,7 C 9,1 km/h (2 Bft)
17.07.2017 19:00 24,7 C 50 % 1017,6 hPa 0,0 l/m 1,9 km/h (1 Bft) W-SW 13,6 C 24,7 C 6,6 km/h (2 Bft)
17.07.2017 20:00 22,4 C 61 % 1017,6 hPa 0,0 l/m 0,2 km/h (0 Bft) S-SW 14,4 C 22,4 C 0,9 km/h (0 Bft)
17.07.2017 21:00 19,7 C 72 % 1017,8 hPa 0,0 l/m 0,0 km/h (0 Bft) S-SW 14,5 C 19,7 C 0,1 km/h (0 Bft)
17.07.2017 22:00 17,6 C 80 % 1018,0 hPa 0,0 l/m 0,0 km/h (0 Bft) S-SW 14,1 C 17,6 C 0,0 km/h (0 Bft)
17.07.2017 23:00 16,3 C 84 % 1018,3 hPa 0,0 l/m 0,0 km/h (0 Bft) S-SW 13,6 C 16,3 C 0,0 km/h (0 Bft)
18.07.2017 00:00 16,1 C 85 % 1018,3 hPa 0,0 l/m 0,0 km/h (0 Bft) S-SW 13,7 C 16,1 C 0,1 km/h (0 Bft)
18.07.2017 01:00 16,2 C 85 % 1018,0 hPa 0,0 l/m 0,0 km/h (0 Bft) S-SW 13,8 C 16,2 C 0,0 km/h (0 Bft)
18.07.2017 02:00 15,5 C 87 % 1017,8 hPa 0,0 l/m 0,0 km/h (0 Bft) S-SW 13,4 C 15,5 C 0,0 km/h (0 Bft)
18.07.2017 03:00 14,5 C 90 % 1017,6 hPa 0,0 l/m 0,0 km/h (0 Bft) S-SW 12,9 C 14,5 C 0,0 km/h (0 Bft)
18.07.2017 04:00 13,6 C 92 % 1017,3 hPa 0,0 l/m 0,0 km/h (0 Bft) S-SW 12,3 C 13,6 C 0,0 km/h (0 Bft)
18.07.2017 05:00 13,0 C 94 % 1017,2 hPa 0,0 l/m 0,0 km/h (0 Bft) S-SW 12,0 C 13,0 C 0,0 km/h (0 Bft)
18.07.2017 06:00 12,7 C 94 % 1017,2 hPa 0,0 l/m 0,0 km/h (0 Bft) S-SW 11,7 C 12,7 C 0,0 km/h (0 Bft)
18.07.2017 07:00 14,4 C 92 % 1017,3 hPa 0,0 l/m 0,0 km/h (0 Bft) S-SW 13,0 C 14,4 C 0,0 km/h (0 Bft)
18.07.2017 08:00 19,7 C 77 % 1017,0 hPa 0,0 l/m 0,6 km/h (0 Bft) S-SW 15,5 C 19,7 C 1,7 km/h (1 Bft)
18.07.2017 09:00 23,1 C 64 % 1016,6 hPa 0,0 l/m 1,8 km/h (1 Bft) NW 15,9 C 23,1 C 4,9 km/h (1 Bft)
18.07.2017 10:00 25,5 C 55 % 1016,3 hPa 0,0 l/m 1,9 km/h (1 Bft) N-NW 15,7 C 25,5 C 5,4 km/h (1 Bft)
18.07.2017 11:00 26,8 C 46 % 1015,9 hPa 0,0 l/m 2,6 km/h (1 Bft) O-NO 14,0 C 26,8 C 6,2 km/h (2 Bft)
18.07.2017 12:00 27,6 C 43 % 1015,6 hPa 0,0 l/m 2,9 km/h (1 Bft) NW 13,9 C 27,6 C 6,0 km/h (2 Bft)
18.07.2017 13:00 28,1 C 42 % 1015,0 hPa 0,0 l/m 2,0 km/h (1 Bft) W-NW 14,1 C 28,1 C 6,0 km/h (2 Bft)
18.07.2017 14:00 28,8 C 41 % 1014,4 hPa 0,0 l/m 2,7 km/h (1 Bft) NW 14,2 C 28,8 C 7,2 km/h (2 Bft)
18.07.2017 15:00 29,1 C 39 % 1013,8 hPa 0,0 l/m 2,8 km/h (1 Bft) NO 13,9 C 29,1 C 6,1 km/h (2 Bft)
18.07.2017 16:00 30,0 C 37 % 1013,1 hPa 0,0 l/m 2,4 km/h (1 Bft) NO 13,8 C 30,0 C 6,7 km/h (2 Bft)
18.07.2017 17:00 29,8 C 37 % 1012,6 hPa 0,0 l/m 2,7 km/h (1 Bft) W 13,6 C 29,8 C 7,1 km/h (2 Bft)
18.07.2017 18:00 28,4 C 42 % 1012,1 hPa 0,0 l/m 0,8 km/h (0 Bft) W 14,1 C 28,4 C 3,6 km/h (1 Bft)
18.07.2017 19:00 26,8 C 47 % 1012,1 hPa 0,0 l/m 0,8 km/h (0 Bft) S-SW 14,6 C 26,8 C 3,7 km/h (1 Bft)
18.07.2017 20:00 24,6 C 57 % 1012,7 hPa 0,5 l/m 3,7 km/h (1 Bft) O-NO 15,3 C 24,6 C 10,3 km/h (2 Bft)
18.07.2017 21:00 20,5 C 84 % 1013,1 hPa 0,0 l/m 0,5 km/h (0 Bft) S-SW 17,6 C 20,5 C 2,5 km/h (1 Bft)
18.07.2017 22:00 18,7 C 89 % 1013,4 hPa 0,0 l/m 0,3 km/h (0 Bft) SW 16,8 C 18,7 C 2,0 km/h (1 Bft)
18.07.2017 23:00 17,1 C 90 % 1013,1 hPa 0,0 l/m 0,2 km/h (0 Bft) O-NO 15,5 C 17,1 C 0,9 km/h (0 Bft)
19.07.2017 00:00 16,1 C 91 % 1013,0 hPa 0,3 l/m 0,1 km/h (0 Bft) O-NO 14,7 C 16,1 C 0,5 km/h (0 Bft)
19.07.2017 01:00 15,5 C 92 % 1012,5 hPa 0,0 l/m 0,3 km/h (0 Bft) O 14,3 C 15,5 C 2,1 km/h (1 Bft)
19.07.2017 02:00 15,1 C 90 % 1012,4 hPa 0,0 l/m 0,3 km/h (0 Bft) O-SO 13,5 C 15,1 C 2,3 km/h (1 Bft)
19.07.2017 03:00 14,5 C 90 % 1012,5 hPa 0,0 l/m 0,0 km/h (0 Bft) O-SO 12,9 C 14,5 C 0,7 km/h (0 Bft)
19.07.2017 04:00 14,3 C 90 % 1012,3 hPa 0,0 l/m 0,1 km/h (0 Bft) O-SO 12,6 C 14,3 C 1,1 km/h (0 Bft)
19.07.2017 05:00 13,6 C 91 % 1012,4 hPa 0,0 l/m 0,0 km/h (0 Bft) O-SO 12,2 C 13,6 C 0,0 km/h (0 Bft)
19.07.2017 06:00 13,1 C 93 % 1012,5 hPa 0,0 l/m 0,0 km/h (0 Bft) O-SO 12,0 C 13,1 C 0,4 km/h (0 Bft)
19.07.2017 07:00 14,2 C 92 % 1012,6 hPa 0,0 l/m 0,0 km/h (0 Bft) O-SO 12,9 C 14,2 C 0,4 km/h (0 Bft)
19.07.2017 08:00 18,6 C 83 % 1012,7 hPa 0,0 l/m 0,2 km/h (0 Bft) O-SO 15,6 C 18,6 C 1,5 km/h (1 Bft)
19.07.2017 09:00 23,3 C 67 % 1012,4 hPa 0,0 l/m 2,7 km/h (1 Bft) O 16,5 C 23,3 C 7,0 km/h (2 Bft)
19.07.2017 10:00 25,9 C 49 % 1012,0 hPa 0,0 l/m 6,0 km/h (2 Bft) O-NO 14,4 C 25,8 C 14,1 km/h (3 Bft)
19.07.2017 11:00 27,7 C 45 % 1011,5 hPa 0,0 l/m 3,7 km/h (1 Bft) O 14,5 C 27,7 C 8,4 km/h (2 Bft)
19.07.2017 12:00 28,9 C 42 % 1010,9 hPa 0,0 l/m 3,2 km/h (1 Bft) N-NO 14,7 C 28,9 C 5,9 km/h (2 Bft)
19.07.2017 13:00 30,4 C 41 % 1010,2 hPa 0,0 l/m 3,9 km/h (1 Bft) O 15,6 C 30,4 C 7,1 km/h (2 Bft)
19.07.2017 14:00 30,8 C 40 % 1009,9 hPa 0,0 l/m 3,9 km/h (1 Bft) NO 15,7 C 30,8 C 7,0 km/h (2 Bft)
19.07.2017 15:00 31,5 C 40 % 1009,6 hPa 0,0 l/m 3,3 km/h (1 Bft) NO 16,2 C 31,5 C 5,9 km/h (2 Bft)
19.07.2017 16:00 31,1 C 38 % 1009,4 hPa 0,0 l/m 7,1 km/h (2 Bft) O-NO 15,0 C 31,1 C 13,0 km/h (3 Bft)
19.07.2017 17:00 30,7 C 37 % 1009,1 hPa 0,0 l/m 5,8 km/h (2 Bft) O-NO 14,1 C 30,7 C 10,4 km/h (2 Bft)
19.07.2017 18:00 30,4 C 38 % 1008,9 hPa 0,0 l/m 3,6 km/h (1 Bft) O 14,4 C 30,4 C 6,6 km/h (2 Bft)
19.07.2017 19:00 28,4 C 44 % 1008,9 hPa 0,0 l/m 1,5 km/h (1 Bft) O 15,0 C 28,4 C 3,1 km/h (1 Bft)
19.07.2017 20:00 26,8 C 51 % 1008,9 hPa 0,0 l/m 0,2 km/h (0 Bft) N 15,8 C 26,8 C 0,7 km/h (0 Bft)
19.07.2017 21:00 23,8 C 57 % 1010,0 hPa 0,0 l/m 4,8 km/h (1 Bft) O 14,7 C 23,8 C 14,1 km/h (3 Bft)
19.07.2017 22:00 21,1 C 65 % 1010,5 hPa 0,0 l/m 3,3 km/h (1 Bft) O 14,1 C 21,0 C 8,9 km/h (2 Bft)
19.07.2017 23:00 18,9 C 77 % 1010,3 hPa 0,0 l/m 2,1 km/h (1 Bft) O-NO 14,8 C 18,9 C 5,2 km/h (1 Bft)
20.07.2017 00:00 18,1 C 81 % 1010,2 hPa 0,0 l/m 1,7 km/h (1 Bft) O 14,8 C 18,1 C 4,3 km/h (1 Bft)
20.07.2017 01:00 17,9 C 82 % 1010,2 hPa 0,0 l/m 1,9 km/h (1 Bft) O 14,7 C 17,9 C 5,3 km/h (1 Bft)
20.07.2017 02:00 18,1 C 81 % 1010,3 hPa 0,0 l/m 1,3 km/h (1 Bft) NO 14,8 C 18,1 C 3,7 km/h (1 Bft)
20.07.2017 03:00 17,4 C 88 % 1010,1 hPa 0,0 l/m 0,1 km/h (0 Bft) NO 15,4 C 17,4 C 0,8 km/h (0 Bft)
20.07.2017 04:00 16,7 C 91 % 1009,7 hPa 0,0 l/m 0,2 km/h (0 Bft) NO 15,2 C 16,7 C 1,9 km/h (1 Bft)
20.07.2017 05:00 17,6 C 83 % 1010,0 hPa 0,0 l/m 1,6 km/h (1 Bft) NO 14,6 C 17,6 C 4,9 km/h (1 Bft)
20.07.2017 06:00 19,2 C 75 % 1010,1 hPa 0,3 l/m 1,5 km/h (1 Bft) O 14,7 C 19,2 C 6,0 km/h (2 Bft)
20.07.2017 07:00 18,0 C 86 % 1010,1 hPa 0,0 l/m 0,1 km/h (0 Bft) O-SO 15,7 C 18,0 C 1,5 km/h (1 Bft)
20.07.2017 08:00 19,0 C 77 % 1010,2 hPa 0,0 l/m 2,7 km/h (1 Bft) O-NO 14,8 C 19,0 C 8,6 km/h (2 Bft)
20.07.2017 09:00 20,4 C 66 % 1010,3 hPa 0,0 l/m 7,7 km/h (2 Bft) NO 13,9 C 19,9 C 18,4 km/h (3 Bft)
20.07.2017 10:00 18,7 C 76 % 1010,7 hPa 1,8 l/m 7,3 km/h (2 Bft) O-NO 14,3 C 17,9 C 16,9 km/h (3 Bft)
20.07.2017 11:00 16,9 C 90 % 1011,2 hPa 0,8 l/m 2,6 km/h (1 Bft) O 15,3 C 16,9 C 5,4 km/h (1 Bft)
20.07.2017 12:00 17,9 C 88 % 1011,3 hPa 0,0 l/m 3,0 km/h (1 Bft) O-NO 15,8 C 17,9 C 6,2 km/h (2 Bft)
20.07.2017 13:00 20,6 C 75 % 1011,2 hPa 0,0 l/m 2,6 km/h (1 Bft) O 16,1 C 20,6 C 7,1 km/h (2 Bft)
20.07.2017 14:00 23,0 C 62 % 1011,2 hPa 0,0 l/m 4,4 km/h (1 Bft) NO 15,3 C 23,0 C 11,0 km/h (2 Bft)
20.07.2017 15:00 23,7 C 57 % 1010,9 hPa 0,0 l/m 4,1 km/h (1 Bft) NO 14,6 C 23,7 C 10,6 km/h (2 Bft)
20.07.2017 16:00 24,6 C 53 % 1010,7 hPa 0,0 l/m 5,4 km/h (2 Bft) O-NO 14,4 C 24,6 C 14,4 km/h (3 Bft)
20.07.2017 17:00 23,9 C 56 % 1010,9 hPa 0,0 l/m 5,4 km/h (1 Bft) O-NO 14,6 C 23,9 C 13,7 km/h (3 Bft)
20.07.2017 18:00 22,3 C 62 % 1011,0 hPa 0,0 l/m 4,3 km/h (1 Bft) O 14,7 C 22,3 C 11,9 km/h (2 Bft)
20.07.2017 19:00 19,2 C 78 % 1011,2 hPa 0,0 l/m 3,3 km/h (1 Bft) NO 15,3 C 19,2 C 9,2 km/h (2 Bft)
20.07.2017 20:00 18,9 C 77 % 1012,0 hPa 0,0 l/m 1,0 km/h (0 Bft) O-NO 14,7 C 18,9 C 3,7 km/h (1 Bft)
20.07.2017 21:00 17,4 C 82 % 1012,6 hPa 0,0 l/m 0,1 km/h (0 Bft) O-NO 14,3 C 17,4 C 1,2 km/h (1 Bft)
20.07.2017 22:00 15,8 C 89 % 1013,0 hPa 0,0 l/m 0,0 km/h (0 Bft) O-NO 13,9 C 15,8 C 0,5 km/h (0 Bft)
20.07.2017 23:00 14,8 C 91 % 1013,3 hPa 0,0 l/m 0,0 km/h (0 Bft) O-NO 13,3 C 14,8 C 0,2 km/h (0 Bft)
21.07.2017 00:00 14,0 C 92 % 1013,3 hPa 0,0 l/m 0,0 km/h (0 Bft) O-NO 12,7 C 14,0 C 0,1 km/h (0 Bft)
21.07.2017 01:00 13,0 C 94 % 1013,5 hPa 0,0 l/m 0,0 km/h (0 Bft) O-NO 12,0 C 13,0 C 0,0 km/h (0 Bft)
21.07.2017 02:00 12,7 C 95 % 1013,6 hPa 0,0 l/m 0,0 km/h (0 Bft) O-NO 11,9 C 12,7 C 0,0 km/h (0 Bft)
21.07.2017 03:00 12,5 C 96 % 1013,3 hPa 0,0 l/m 0,1 km/h (0 Bft) O-NO 11,8 C 12,5 C 0,5 km/h (0 Bft)
21.07.2017 04:00 12,6 C 96 % 1013,2 hPa 0,0 l/m 0,0 km/h (0 Bft) O-NO 12,0 C 12,6 C 0,4 km/h (0 Bft)
21.07.2017 05:00 12,8 C 96 % 1013,1 hPa 0,0 l/m 0,0 km/h (0 Bft) O-NO 12,2 C 12,8 C 0,4 km/h (0 Bft)
21.07.2017 06:00 13,2 C 96 % 1013,2 hPa 0,0 l/m 0,0 km/h (0 Bft) O-NO 12,6 C 13,2 C 0,5 km/h (0 Bft)
21.07.2017 07:00 14,1 C 96 % 1013,2 hPa 0,0 l/m 0,1 km/h (0 Bft) O-NO 13,4 C 14,1 C 0,9 km/h (0 Bft)
21.07.2017 08:00 16,9 C 88 % 1013,5 hPa 0,0 l/m 1,1 km/h (0 Bft) NW 14,8 C 16,9 C 3,5 km/h (1 Bft)
21.07.2017 09:00 18,9 C 75 % 1013,5 hPa 0,0 l/m 2,5 km/h (1 Bft) NW 14,3 C 18,9 C 7,2 km/h (2 Bft)
21.07.2017 10:00 21,3 C 65 % 1013,1 hPa 0,0 l/m 3,3 km/h (1 Bft) NW 14,5 C 21,3 C 8,5 km/h (2 Bft)
21.07.2017 11:00 23,3 C 60 % 1012,5 hPa 0,0 l/m 3,0 km/h (1 Bft) W-NW 15,0 C 23,3 C 7,4 km/h (2 Bft)
21.07.2017 12:00 24,0 C 59 % 1012,1 hPa 0,0 l/m 2,4 km/h (1 Bft) SW 15,5 C 24,0 C 5,6 km/h (2 Bft)
21.07.2017 13:00 24,8 C 57 % 1011,3 hPa 0,0 l/m 2,9 km/h (1 Bft) W-NW 15,6 C 24,8 C 6,7 km/h (2 Bft)
21.07.2017 14:00 26,2 C 54 % 1010,8 hPa 0,0 l/m 2,7 km/h (1 Bft) NW 16,1 C 26,2 C 6,7 km/h (2 Bft)
21.07.2017 15:00 27,5 C 50 % 1009,9 hPa 0,0 l/m 3,4 km/h (1 Bft) NO 16,0 C 27,5 C 9,3 km/h (2 Bft)
21.07.2017 16:00 28,0 C 47 % 1009,1 hPa 0,0 l/m 3,2 km/h (1 Bft) NW 15,5 C 28,0 C 9,0 km/h (2 Bft)
21.07.2017 17:00 27,1 C 50 % 1008,5 hPa 0,0 l/m 2,3 km/h (1 Bft) NW 15,8 C 27,1 C 6,1 km/h (2 Bft)
21.07.2017 18:00 25,1 C 60 % 1008,5 hPa 1,0 l/m 3,0 km/h (1 Bft) W 16,8 C 25,1 C 8,3 km/h (2 Bft)
21.07.2017 19:00 19,0 C 89 % 1009,3 hPa 13,5 l/m 1,9 km/h (1 Bft) O-NO 17,1 C 19,0 C 7,1 km/h (2 Bft)
21.07.2017 20:00 17,7 C 94 % 1009,8 hPa 2,0 l/m 2,6 km/h (1 Bft) O 16,6 C 17,7 C 7,2 km/h (2 Bft)
21.07.2017 21:00 16,7 C 94 % 1010,7 hPa 4,1 l/m 2,9 km/h (1 Bft) O-NO 15,8 C 16,7 C 7,1 km/h (2 Bft)
21.07.2017 22:00 16,0 C 95 % 1011,1 hPa 0,0 l/m 0,7 km/h (0 Bft) N 15,3 C 16,0 C 2,8 km/h (1 Bft)
21.07.2017 23:00 15,8 C 96 % 1011,2 hPa 0,0 l/m 0,4 km/h (0 Bft) N 15,2 C 15,8 C 2,2 km/h (1 Bft)
22.07.2017 00:00 15,7 C 96 % 1011,1 hPa 0,0 l/m 0,1 km/h (0 Bft) N-NW 15,1 C 15,7 C 1,0 km/h (0 Bft)
22.07.2017 01:00 15,3 C 96 % 1011,0 hPa 0,0 l/m 0,0 km/h (0 Bft) N-NW 14,7 C 15,3 C 0,3 km/h (0 Bft)
22.07.2017 02:00 15,1 C 97 % 1011,0 hPa 0,0 l/m 0,1 km/h (0 Bft) N-NW 14,6 C 15,1 C 0,8 km/h (0 Bft)
22.07.2017 03:00 15,3 C 97 % 1011,2 hPa 0,3 l/m 0,2 km/h (0 Bft) N 14,9 C 15,3 C 1,5 km/h (1 Bft)
22.07.2017 04:00 15,3 C 97 % 1011,0 hPa 0,0 l/m 0,0 km/h (0 Bft) N 14,8 C 15,3 C 0,7 km/h (0 Bft)
22.07.2017 05:00 15,0 C 97 % 1011,3 hPa 0,0 l/m 0,5 km/h (0 Bft) N-NO 14,5 C 15,0 C 2,4 km/h (1 Bft)
22.07.2017 06:00 14,8 C 97 % 1011,7 hPa 0,0 l/m 0,3 km/h (0 Bft) O 14,4 C 14,8 C 1,9 km/h (1 Bft)
22.07.2017 07:00 14,9 C 97 % 1012,0 hPa 0,0 l/m 1,7 km/h (1 Bft) O 14,5 C 14,9 C 4,8 km/h (1 Bft)
22.07.2017 08:00 16,8 C 96 % 1012,2 hPa 0,0 l/m 1,5 km/h (1 Bft) O-NO 16,2 C 16,8 C 4,0 km/h (1 Bft)
22.07.2017 09:00 19,1 C 86 % 1012,6 hPa 0,0 l/m 3,1 km/h (1 Bft) O 16,7 C 19,1 C 6,9 km/h (2 Bft)
22.07.2017 10:00 20,6 C 80 % 1012,8 hPa 0,0 l/m 3,4 km/h (1 Bft) O-NO 17,0 C 20,6 C 8,3 km/h (2 Bft)
22.07.2017 11:00 22,9 C 70 % 1012,7 hPa 0,0 l/m 1,8 km/h (1 Bft) NW 17,2 C 22,9 C 4,3 km/h (1 Bft)
22.07.2017 12:00 23,6 C 66 % 1012,7 hPa 0,0 l/m 2,9 km/h (1 Bft) NO 16,8 C 23,6 C 6,6 km/h (2 Bft)
22.07.2017 13:00 24,8 C 60 % 1012,4 hPa 0,0 l/m 3,7 km/h (1 Bft) NO 16,4 C 24,8 C 9,3 km/h (2 Bft)
22.07.2017 14:00 25,4 C 57 % 1012,2 hPa 0,0 l/m 5,9 km/h (2 Bft) N-NO 16,1 C 25,3 C 13,7 km/h (3 Bft)
22.07.2017 15:00 25,6 C 52 % 1012,2 hPa 0,0 l/m 7,2 km/h (2 Bft) NO 14,9 C 25,4 C 16,1 km/h (3 Bft)
22.07.2017 16:00 25,8 C 46 % 1012,1 hPa 0,0 l/m 6,9 km/h (2 Bft) O-NO 13,2 C 25,6 C 18,0 km/h (3 Bft)
22.07.2017 17:00 26,3 C 40 % 1011,9 hPa 0,0 l/m 5,8 km/h (2 Bft) O-NO 11,8 C 26,3 C 15,8 km/h (3 Bft)
22.07.2017 18:00 24,9 C 44 % 1012,1 hPa 0,0 l/m 3,3 km/h (1 Bft) O-NO 11,7 C 24,9 C 9,0 km/h (2 Bft)
22.07.2017 19:00 23,4 C 55 % 1012,0 hPa 0,0 l/m 1,5 km/h (1 Bft) O-NO 13,8 C 23,4 C 4,1 km/h (1 Bft)
22.07.2017 20:00 22,6 C 54 % 1012,0 hPa 0,0 l/m 2,5 km/h (1 Bft) O-NO 12,8 C 22,6 C 7,6 km/h (2 Bft)
22.07.2017 21:00 21,0 C 58 % 1011,8 hPa 0,0 l/m 1,3 km/h (1 Bft) S-SO 12,5 C 21,0 C 4,3 km/h (1 Bft)
22.07.2017 22:00 18,9 C 70 % 1012,1 hPa 0,0 l/m 0,6 km/h (0 Bft) O 13,4 C 18,9 C 1,9 km/h (1 Bft)
22.07.2017 23:00 18,4 C 75 % 1012,3 hPa 0,0 l/m 0,7 km/h (0 Bft) O 13,8 C 18,4 C 2,6 km/h (1 Bft)
23.07.2017 00:00 18,4 C 76 % 1012,6 hPa 0,0 l/m 1,1 km/h (1 Bft) O-NO 14,1 C 18,4 C 2,4 km/h (1 Bft)
23.07.2017 01:00 17,2 C 81 % 1013,1 hPa 0,0 l/m 0,4 km/h (0 Bft) O 13,9 C 17,2 C 2,4 km/h (1 Bft)
23.07.2017 02:00 16,9 C 86 % 1013,3 hPa 0,3 l/m 0,6 km/h (0 Bft) S 14,5 C 16,9 C 3,6 km/h (1 Bft)
23.07.2017 03:00 16,2 C 92 % 1013,4 hPa 0,3 l/m 0,8 km/h (0 Bft) NW 14,9 C 16,2 C 3,1 km/h (1 Bft)
23.07.2017 04:00 16,1 C 94 % 1013,2 hPa 0,0 l/m 0,6 km/h (0 Bft) O-NO 15,0 C 16,1 C 3,2 km/h (1 Bft)
23.07.2017 05:00 15,9 C 94 % 1013,6 hPa 10,2 l/m 2,4 km/h (1 Bft) O-NO 14,9 C 15,9 C 6,8 km/h (2 Bft)
23.07.2017 06:00 15,2 C 94 % 1014,2 hPa 0,5 l/m 1,7 km/h (1 Bft) O 14,2 C 15,2 C 5,6 km/h (2 Bft)
23.07.2017 07:00 15,1 C 94 % 1014,5 hPa 2,0 l/m 2,6 km/h (1 Bft) O-NO 14,1 C 15,1 C 7,6 km/h (2 Bft)
23.07.2017 08:00 14,5 C 94 % 1014,9 hPa 1,8 l/m 2,8 km/h (1 Bft) O 13,5 C 14,5 C 8,2 km/h (2 Bft)
23.07.2017 09:00 13,8 C 92 % 1015,5 hPa 0,5 l/m 3,2 km/h (1 Bft) O-NO 12,5 C 13,8 C 9,0 km/h (2 Bft)
23.07.2017 10:00 13,6 C 91 % 1015,6 hPa 0,0 l/m 2,9 km/h (1 Bft) O 12,3 C 13,6 C 7,2 km/h (2 Bft)
23.07.2017 11:00 14,1 C 89 % 1016,0 hPa 0,0 l/m 2,1 km/h (1 Bft) O-NO 12,4 C 14,1 C 4,7 km/h (1 Bft)
23.07.2017 12:00 14,6 C 88 % 1016,2 hPa 0,0 l/m 2,1 km/h (1 Bft) O-NO 12,6 C 14,6 C 4,2 km/h (1 Bft)
23.07.2017 13:00 16,9 C 82 % 1016,0 hPa 0,0 l/m 3,6 km/h (1 Bft) O-NO 13,6 C 16,8 C 7,7 km/h (2 Bft)
23.07.2017 14:00 18,6 C 70 % 1016,0 hPa 0,0 l/m 5,7 km/h (2 Bft) O-NO 13,0 C 18,5 C 14,9 km/h (3 Bft)
23.07.2017 15:00 18,8 C 68 % 1015,8 hPa 0,0 l/m 4,3 km/h (1 Bft) O-NO 12,8 C 18,8 C 11,1 km/h (2 Bft)
23.07.2017 16:00 18,5 C 67 % 1015,4 hPa 0,0 l/m 4,7 km/h (1 Bft) O-NO 12,3 C 18,5 C 12,5 km/h (2 Bft)
23.07.2017 17:00 18,5 C 65 % 1015,0 hPa 0,0 l/m 4,4 km/h (1 Bft) N-NO 11,8 C 18,5 C 11,4 km/h (2 Bft)
23.07.2017 18:00 18,9 C 60 % 1014,8 hPa 0,0 l/m 3,6 km/h (1 Bft) O 11,1 C 18,9 C 9,1 km/h (2 Bft)
23.07.2017 19:00 18,0 C 67 % 1014,6 hPa 0,0 l/m 0,7 km/h (0 Bft) O 11,7 C 18,0 C 3,2 km/h (1 Bft)
23.07.2017 20:00 16,3 C 75 % 1014,5 hPa 0,0 l/m 0,5 km/h (0 Bft) O-NO 12,0 C 16,3 C 1,7 km/h (1 Bft)
23.07.2017 21:00 13,7 C 84 % 1014,7 hPa 0,0 l/m 0,0 km/h (0 Bft) O-NO 11,0 C 13,7 C 0,3 km/h (0 Bft)
23.07.2017 22:00 11,8 C 90 % 1014,9 hPa 0,0 l/m 0,0 km/h (0 Bft) O-NO 10,1 C 11,8 C 0,3 km/h (0 Bft)
23.07.2017 23:00 10,8 C 93 % 1014,5 hPa 0,0 l/m 0,1 km/h (0 Bft) O-NO 9,8 C 10,8 C 0,4 km/h (0 Bft)
Min-Datum _ 17.07.17 19.07.17 21.07.17 - 23.07.17 - 17.07.17 17.07.17 23.07.17
_ Min-Zeit 06:00 17:37 18:25 - 23:00 - 06:00 06:00 23:10
Minimum _ 9,9 C 34 % 1007,9 hPa - 0,0 km/h (0 Bft) - 9,1 C 9,9 C 0,0 km/h (0 Bft)
Max-Datum _ 19.07.17 22.07.17 17.07.17 21.07.17 20.07.17 - 21.07.17 19.07.17 20.07.17
_ Max-Zeit 15:26 08:00 00:40 19:00 10:10 - 18:50 15:26 10:10
Maximum _ 32,2 C 98 % 1022,2 hPa 13,5 l/m 12,9 km/h
O-NO (3 Bft)
- 18,0 C 32,2 C 35,4 km/h
O-NO (5 Bft)
Durchschnitt _ 19,7 C 73 % 1013,6 hPa #39,9 l/m 1,9 km/h (1 Bft) O-NO 14,0 C 19,7 C 5,0 km/h (1 Bft)